Big Bear Station Historical Data
 
Daily Summary for December 17, 2018 Units:  English    Metric   Both
Next Day »
Daily Weekly Monthly Yearly Custom
  Current: High: Low: Average:
Temperature: 40.1 °F 40.1 °F 29.8 °F 36.2 °F
Dew Point: 28.5 °F 28.5 °F 15.7 °F 19.3 °F
Humidity: 63% 83% 37% 51%
Wind Speed: 3.7mph 6.3mph 0mph 0.9mph
Wind Gust: -999mph -999mph - -
WindNW - - SW
Pressure: 23.57 in 23.57 in 23.53 in -
Precipitation: 0 in      
Historical Graphs
 
 
Tabular Data for December 17, 2018
Time Temperature Dew Point Pressure Wind Wind Speed Wind Gust Humidity Rainfall Rate (Hourly)
00:03 29.8 °F 25.3 °F 23.57 in Calm   -999 mph 83% 0.00 in
00:19 33.8 °F 19.8 °F 23.56 in South 1.1 mph -999 mph 56% 0.00 in
00:34 36.1 °F 16.3 °F 23.56 in South 1.1 mph -999 mph 44% 0.00 in
00:49 39.2 °F 16.3 °F 23.56 in South 3.2 mph -999 mph 39% 0.00 in
01:05 39.9 °F 15.7 °F 23.56 in SSW 2.7 mph -999 mph 37% 0.00 in
01:20 38.8 °F 16.5 °F 23.56 in Calm   -999 mph 40% 0.00 in
01:35 38.1 °F 15.9 °F 23.56 in Calm   -999 mph 40% 0.00 in
01:50 37.8 °F 17.8 °F 23.56 in Calm   -999 mph 44% 0.00 in
02:05 37.6 °F 18.2 °F 23.55 in Calm   -999 mph 45% 0.00 in
02:21 37.2 °F 18.3 °F 23.55 in Calm   -999 mph 46% 0.00 in
02:36 37.8 °F 18.9 °F 23.56 in Calm   -999 mph 46% 0.00 in
02:51 37.2 °F 18.8 °F 23.55 in Calm   -999 mph 47% 0.00 in
03:06 36.5 °F 19.1 °F 23.55 in Calm   -999 mph 49% 0.00 in
03:21 36 °F 18.7 °F 23.55 in Calm   -999 mph 49% 0.00 in
03:37 36 °F 19.6 °F 23.54 in WNW 1.7 mph -999 mph 51% 0.00 in
03:52 35.4 °F 19.1 °F 23.54 in Calm   -999 mph 51% 0.00 in
04:07 34.3 °F 20.2 °F 23.53 in Calm   -999 mph 56% 0.00 in
04:22 34.3 °F 17.6 °F 23.53 in Calm   -999 mph 50% 0.00 in
04:37 35.4 °F 16.7 °F 23.53 in Calm   -999 mph 46% 0.00 in
04:53 36.1 °F 17.3 °F 23.54 in Calm   -999 mph 46% 0.00 in
05:08 35.6 °F 18.3 °F 23.54 in Calm   -999 mph 49% 0.00 in
05:24 35.2 °F 18.4 °F 23.54 in SE 6.3 mph -999 mph 50% 0.00 in
05:39 34.5 °F 18.7 °F 23.55 in ESE 2.2 mph -999 mph 52% 0.00 in
05:54 34.3 °F 18.5 °F 23.55 in Calm   -999 mph 52% 0.00 in
06:10 33.3 °F 18 °F 23.55 in Calm   -999 mph 53% 0.00 in
06:25 33.1 °F 17.4 °F 23.56 in Calm   -999 mph 52% 0.00 in
06:40 34.3 °F 17.6 °F 23.56 in Calm   -999 mph 50% 0.00 in
06:55 34.3 °F 18 °F 23.55 in Calm   -999 mph 51% 0.00 in
07:11 34.5 °F 17.3 °F 23.56 in Calm   -999 mph 49% 0.00 in
07:26 35.2 °F 16.5 °F 23.55 in WNW 1.7 mph -999 mph 46% 0.00 in
07:41 35.8 °F 18.5 °F 23.55 in WNW 2.2 mph -999 mph 49% 0.00 in
07:56 37.6 °F 23.3 °F 23.56 in NNW 1.7 mph -999 mph 56% 0.00 in
08:12 38.1 °F 24.6 °F 23.56 in NW 1.7 mph -999 mph 58% 0.00 in
08:27 38.3 °F 25.6 °F 23.56 in West 3.2 mph -999 mph 60% 0.00 in
08:42 39.9 °F 27.9 °F 23.57 in SE 1.1 mph -999 mph 62% 0.00 in
08:58 40.1 °F 28.5 °F 23.57 in NW 3.7 mph -999 mph 63% 0.00 in
Big Bear CA Weather